createdAt,value
2018-07-06T00:00:29.013Z,101320.92
2018-07-06T00:01:51.177Z,101323.39
2018-07-06T00:03:13.360Z,101329.16
2018-07-06T00:04:35.568Z,101329.00
2018-07-06T00:05:57.670Z,101333.12
2018-07-06T00:07:19.828Z,101328.70
2018-07-06T00:08:42.055Z,101332.01
2018-07-06T00:10:04.240Z,101331.23
2018-07-06T00:11:26.440Z,101332.28
2018-07-06T00:12:48.702Z,101333.42
2018-07-06T00:14:10.993Z,101337.25
2018-07-06T00:15:33.238Z,101334.17
2018-07-06T00:16:55.397Z,101333.77
2018-07-06T00:18:17.537Z,101337.97
2018-07-06T00:19:39.784Z,101334.17
2018-07-06T00:21:02.653Z,101333.70
2018-07-06T00:22:24.996Z,101328.83
2018-07-06T00:23:47.340Z,101332.59
2018-07-06T00:25:09.514Z,101338.84
2018-07-06T00:26:31.696Z,101338.18
2018-07-06T00:27:53.975Z,101335.96
2018-07-06T00:29:16.209Z,101338.84
2018-07-06T00:30:38.484Z,101333.65
2018-07-06T00:32:00.509Z,101338.13
2018-07-06T00:33:22.979Z,101341.61
2018-07-06T00:34:45.308Z,101348.73
2018-07-06T00:36:07.541Z,101345.80
2018-07-06T00:37:29.768Z,101345.14
2018-07-06T00:38:52.116Z,101349.09
2018-07-06T00:40:14.431Z,101342.48
2018-07-06T00:41:36.807Z,101351.50
2018-07-06T00:42:59.020Z,101353.88
2018-07-06T00:44:21.325Z,101347.76
2018-07-06T00:45:43.552Z,101350.80
2018-07-06T00:47:05.847Z,101349.26
2018-07-06T00:48:28.013Z,101347.44
2018-07-06T00:49:50.172Z,101352.50
2018-07-06T00:51:12.537Z,101347.07
2018-07-06T00:52:35.092Z,101349.72
2018-07-06T00:53:57.251Z,101348.09
2018-07-06T00:55:19.717Z,101353.34
2018-07-06T00:56:41.985Z,101350.92
2018-07-06T00:58:04.220Z,101347.97
2018-07-06T00:59:26.286Z,101357.34
2018-07-06T01:00:48.356Z,101356.70
2018-07-06T01:02:10.821Z,101355.34
2018-07-06T01:03:33.217Z,101357.87
2018-07-06T01:04:55.635Z,101355.52
2018-07-06T01:06:17.992Z,101357.64
2018-07-06T01:07:40.125Z,101354.92
2018-07-06T01:08:56.786Z,101355.23
2018-07-06T01:10:18.871Z,101354.52
2018-07-06T01:11:41.128Z,101362.53
2018-07-06T01:13:04.066Z,101359.71
2018-07-06T01:14:26.485Z,101359.52
2018-07-06T01:15:48.706Z,101362.77
2018-07-06T01:17:17.417Z,101363.59
2018-07-06T01:18:39.524Z,101359.80
2018-07-06T01:20:01.717Z,101357.09
2018-07-06T01:21:24.049Z,101355.22
2018-07-06T01:22:46.704Z,101358.58
2018-07-06T01:24:09.005Z,101364.05
2018-07-06T01:25:31.373Z,101361.23
2018-07-06T01:26:53.621Z,101359.05
2018-07-06T01:28:16.077Z,101358.92
2018-07-06T01:29:38.471Z,101359.47
2018-07-06T01:31:00.825Z,101354.75
2018-07-06T01:32:22.948Z,101353.15
2018-07-06T01:33:45.204Z,101352.32
2018-07-06T01:35:07.460Z,101348.80
2018-07-06T01:36:29.706Z,101353.39
2018-07-06T01:37:51.898Z,101348.73
2018-07-06T01:39:14.073Z,101348.84
2018-07-06T01:40:36.377Z,101352.33
2018-07-06T01:41:58.822Z,101350.84
2018-07-06T01:43:21.152Z,101350.91
2018-07-06T01:44:43.668Z,101357.20
2018-07-06T01:46:06.580Z,101355.08
2018-07-06T01:47:29.118Z,101354.67
2018-07-06T01:48:51.348Z,101359.27
2018-07-06T01:50:13.441Z,101356.84
2018-07-06T01:51:35.818Z,101360.66
2018-07-06T01:52:58.781Z,101358.38
2018-07-06T01:54:20.925Z,101361.80
2018-07-06T01:55:43.293Z,101363.26
2018-07-06T01:57:05.466Z,101364.86
2018-07-06T01:58:27.709Z,101361.73
2018-07-06T01:59:49.890Z,101362.45
2018-07-06T02:01:12.386Z,101360.33
2018-07-06T02:02:34.835Z,101362.45
2018-07-06T02:03:57.152Z,101362.05
2018-07-06T02:05:19.549Z,101365.75
2018-07-06T02:06:41.812Z,101361.27
2018-07-06T02:08:04.553Z,101368.09
2018-07-06T02:09:26.789Z,101371.92
2018-07-06T02:10:49.137Z,101373.74
2018-07-06T02:12:11.425Z,101372.58
2018-07-06T02:13:33.680Z,101373.41
2018-07-06T02:14:56.013Z,101367.16
2018-07-06T02:16:18.285Z,101371.05
2018-07-06T02:17:40.468Z,101371.22
2018-07-06T02:19:03.014Z,101370.16
2018-07-06T02:20:25.389Z,101365.56
2018-07-06T02:21:47.616Z,101369.69
2018-07-06T02:23:09.766Z,101365.50
2018-07-06T02:24:32.277Z,101371.74
2018-07-06T02:25:54.470Z,101375.47
2018-07-06T02:27:16.881Z,101372.28
2018-07-06T02:28:39.037Z,101377.70
2018-07-06T02:29:55.519Z,101379.71
2018-07-06T02:31:17.920Z,101377.05
2018-07-06T02:32:40.259Z,101375.83
2018-07-06T02:34:02.800Z,101375.23
2018-07-06T02:35:25.220Z,101384.31
2018-07-06T02:36:47.571Z,101382.18
2018-07-06T02:38:09.799Z,101380.20
2018-07-06T02:39:32.113Z,101381.84
2018-07-06T02:40:54.424Z,101382.18
2018-07-06T02:42:16.858Z,101381.78
2018-07-06T02:43:39.266Z,101383.84
2018-07-06T02:45:01.490Z,101383.41
2018-07-06T02:46:23.685Z,101384.28
2018-07-06T02:47:45.876Z,101381.07
2018-07-06T02:49:08.068Z,101381.78
2018-07-06T02:50:30.437Z,101382.46
2018-07-06T02:51:53.041Z,101384.44
2018-07-06T02:53:15.225Z,101384.78
2018-07-06T02:54:37.505Z,101381.66
2018-07-06T02:55:59.788Z,101381.06
2018-07-06T02:57:21.998Z,101385.14
2018-07-06T02:58:44.309Z,101384.61
2018-07-06T03:00:06.662Z,101386.78
2018-07-06T03:01:28.698Z,101386.45
2018-07-06T03:02:51.194Z,101393.95
2018-07-06T03:04:13.605Z,101384.81
2018-07-06T03:05:35.958Z,101388.23
2018-07-06T03:06:58.458Z,101388.52
2018-07-06T03:08:20.863Z,101390.65
2018-07-06T03:09:43.108Z,101387.41
2018-07-06T03:11:05.524Z,101395.00
2018-07-06T03:12:27.875Z,101394.36
2018-07-06T03:13:50.216Z,101394.30
2018-07-06T03:15:12.643Z,101393.80
2018-07-06T03:16:35.049Z,101392.69
2018-07-06T03:17:57.420Z,101397.94
2018-07-06T03:19:13.681Z,101404.42
2018-07-06T03:20:35.905Z,101398.89
2018-07-06T03:21:58.100Z,101399.23
2018-07-06T03:23:20.226Z,101397.53
2018-07-06T03:24:42.681Z,101395.80
2018-07-06T03:26:05.182Z,101399.11
2018-07-06T03:27:27.313Z,101400.66
2018-07-06T03:28:49.877Z,101401.58
2018-07-06T03:30:11.916Z,101401.42
2018-07-06T03:31:34.225Z,101403.95
2018-07-06T03:32:56.501Z,101406.36
2018-07-06T03:34:18.900Z,101402.31
2018-07-06T03:35:48.824Z,101407.13
2018-07-06T03:37:13.981Z,101402.66
2018-07-06T03:38:36.214Z,101401.17
2018-07-06T03:39:58.513Z,101403.19
2018-07-06T03:41:21.092Z,101405.78
2018-07-06T03:42:43.344Z,101403.70
2018-07-06T03:44:05.588Z,101400.84
2018-07-06T03:45:27.944Z,101406.88
2018-07-06T03:46:50.280Z,101402.06
2018-07-06T03:48:12.839Z,101411.27
2018-07-06T03:49:35.033Z,101411.02
2018-07-06T03:50:57.304Z,101414.85
2018-07-06T03:52:19.577Z,101416.58
2018-07-06T03:53:41.717Z,101416.45
2018-07-06T03:55:04.017Z,101417.63
2018-07-06T03:56:26.804Z,101416.73
2018-07-06T03:57:49.253Z,101418.67
2018-07-06T03:59:11.495Z,101426.95
2018-07-06T04:00:33.748Z,101425.41
2018-07-06T04:01:56.037Z,101430.66
2018-07-06T04:03:18.400Z,101419.45
2018-07-06T04:04:40.766Z,101424.88
2018-07-06T04:06:03.188Z,101421.70
2018-07-06T04:07:25.460Z,101416.92
2018-07-06T04:08:47.689Z,101423.87
2018-07-06T04:10:10.099Z,101425.05
2018-07-06T04:11:32.431Z,101427.11
2018-07-06T04:12:54.733Z,101425.88
2018-07-06T04:14:17.107Z,101426.98
2018-07-06T04:15:39.390Z,101428.34
2018-07-06T04:17:01.593Z,101428.93
2018-07-06T04:18:23.840Z,101425.41
2018-07-06T04:19:46.036Z,101431.00
2018-07-06T04:21:09.282Z,101426.77
2018-07-06T04:22:31.647Z,101428.83
2018-07-06T04:23:53.816Z,101426.42
2018-07-06T04:25:16.830Z,101425.06
2018-07-06T04:26:39.087Z,101428.52
2018-07-06T04:28:01.253Z,101430.52
2018-07-06T04:29:23.549Z,101429.72
2018-07-06T04:30:45.868Z,101433.83
2018-07-06T04:32:08.318Z,101426.42
2018-07-06T04:33:30.341Z,101425.83
2018-07-06T04:34:53.092Z,101429.35
2018-07-06T04:36:15.281Z,101427.46
2018-07-06T04:37:37.653Z,101425.88
2018-07-06T04:39:00.221Z,101429.18
2018-07-06T04:40:22.820Z,101430.75
2018-07-06T04:41:45.450Z,101430.52
2018-07-06T04:43:07.716Z,101432.83
2018-07-06T04:44:29.905Z,101432.22
2018-07-06T04:45:52.013Z,101431.29
2018-07-06T04:47:14.294Z,101436.35
2018-07-06T04:48:36.565Z,101433.71
2018-07-06T04:49:58.812Z,101433.82
2018-07-06T04:51:21.268Z,101438.55
2018-07-06T04:52:43.544Z,101434.22
2018-07-06T04:54:05.789Z,101435.18
2018-07-06T04:55:28.161Z,101437.67
2018-07-06T04:56:44.322Z,101436.55
2018-07-06T04:58:06.845Z,101441.55
2018-07-06T04:59:30.880Z,101438.72
2018-07-06T05:00:53.313Z,101446.61
2018-07-06T05:02:09.844Z,101439.05
2018-07-06T05:03:32.141Z,101444.71
2018-07-06T05:04:54.496Z,101446.38
2018-07-06T05:06:16.570Z,101437.52
2018-07-06T05:07:38.886Z,101444.44
2018-07-06T05:09:01.212Z,101443.61
2018-07-06T05:10:23.512Z,101447.70
2018-07-06T05:11:45.720Z,101443.56
2018-07-06T05:13:08.069Z,101442.91
2018-07-06T05:14:30.429Z,101438.72
2018-07-06T05:15:52.625Z,101441.02
2018-07-06T05:17:14.872Z,101438.59
2018-07-06T05:18:37.073Z,101444.73
2018-07-06T05:19:59.127Z,101447.68
2018-07-06T05:21:22.368Z,101442.95
2018-07-06T05:22:44.647Z,101449.91
2018-07-06T05:24:07.080Z,101448.59
2018-07-06T05:25:29.970Z,101449.29
2018-07-06T05:26:52.116Z,101452.82
2018-07-06T05:28:14.293Z,101447.63
2018-07-06T05:29:36.797Z,101447.72
2018-07-06T05:30:58.984Z,101448.95
2018-07-06T05:32:21.449Z,101450.41
2018-07-06T05:33:43.744Z,101451.95
2018-07-06T05:35:06.212Z,101453.73
2018-07-06T05:36:28.641Z,101452.45
2018-07-06T05:37:50.748Z,101454.74
2018-07-06T05:39:13.193Z,101457.95
2018-07-06T05:40:35.556Z,101460.93
2018-07-06T05:41:57.752Z,101459.09
2018-07-06T05:43:20.314Z,101460.93
2018-07-06T05:44:42.649Z,101465.07
2018-07-06T05:46:04.941Z,101463.48
2018-07-06T05:47:21.167Z,101468.45
2018-07-06T05:48:43.304Z,101465.88
2018-07-06T05:50:05.660Z,101470.77
2018-07-06T05:51:28.011Z,101467.26
2018-07-06T05:52:50.350Z,101470.91
2018-07-06T05:54:12.665Z,101474.74
2018-07-06T05:55:34.852Z,101476.52
2018-07-06T05:56:57.111Z,101480.95
2018-07-06T05:58:19.569Z,101480.87
2018-07-06T05:59:41.808Z,101481.27
2018-07-06T06:01:04.105Z,101492.10
2018-07-06T06:02:26.718Z,101493.53
2018-07-06T06:03:49.175Z,101494.69
2018-07-06T06:05:11.357Z,101499.88
2018-07-06T06:06:33.836Z,101499.58
2018-07-06T06:07:37.477Z,101499.48
2018-07-06T06:08:41.092Z,101502.52
2018-07-06T06:09:46.524Z,101503.23
2018-07-06T06:10:51.998Z,101506.92
2018-07-06T06:11:57.117Z,101509.97
2018-07-06T06:13:02.553Z,101508.75
2018-07-06T06:14:07.961Z,101506.33
2018-07-06T06:15:13.400Z,101512.78
2018-07-06T06:16:19.301Z,101509.33
2018-07-06T06:17:24.725Z,101515.59
2018-07-06T06:18:30.288Z,101512.48
2018-07-06T06:19:35.685Z,101510.70
2018-07-06T06:20:41.077Z,101517.59
2018-07-06T06:21:46.676Z,101518.89
2018-07-06T06:22:52.280Z,101514.20
2018-07-06T06:23:57.676Z,101520.11
2018-07-06T06:25:03.123Z,101518.68
2018-07-06T06:26:08.571Z,101522.73
2018-07-06T06:27:14.301Z,101522.97
2018-07-06T06:28:19.729Z,101522.08
2018-07-06T06:29:25.200Z,101523.86
2018-07-06T06:30:30.761Z,101526.11
2018-07-06T06:31:36.269Z,101517.77
2018-07-06T06:32:42.397Z,101525.25
2018-07-06T06:33:48.048Z,101527.41
2018-07-06T06:34:53.468Z,101528.61
2018-07-06T06:35:59.001Z,101526.48
2018-07-06T06:37:04.673Z,101520.89
2018-07-06T06:38:10.613Z,101525.48
2018-07-06T06:39:16.116Z,101526.64
2018-07-06T06:40:21.622Z,101527.25
2018-07-06T06:41:27.217Z,101524.87
2018-07-06T06:42:32.705Z,101524.72
2018-07-06T06:43:38.276Z,101528.48
2018-07-06T06:44:43.880Z,101531.84
2018-07-06T06:45:49.362Z,101531.98
2018-07-06T06:46:54.893Z,101535.75
2018-07-06T06:48:00.780Z,101534.66
2018-07-06T06:49:06.692Z,101531.98
2018-07-06T06:50:12.380Z,101537.66
2018-07-06T06:51:17.828Z,101534.13
2018-07-06T06:52:23.345Z,101538.64
2018-07-06T06:53:29.002Z,101540.56
2018-07-06T06:54:34.681Z,101540.23
2018-07-06T06:55:40.195Z,101535.28
2018-07-06T06:56:45.782Z,101529.78
2018-07-06T06:57:51.234Z,101539.72
2018-07-06T06:58:56.808Z,101536.28
2018-07-06T07:00:02.481Z,101533.06
2018-07-06T07:01:08.456Z,101538.48
2018-07-06T07:02:13.937Z,101538.56
2018-07-06T07:03:19.472Z,101540.88
2018-07-06T07:04:25.328Z,101537.34
2018-07-06T07:05:30.968Z,101544.46
2018-07-06T07:06:36.838Z,101540.30
2018-07-06T07:07:42.451Z,101545.08
2018-07-06T07:08:47.996Z,101543.98
2018-07-06T07:09:54.377Z,101548.72
2018-07-06T07:11:00.119Z,101552.22
2018-07-06T07:12:05.648Z,101551.68
2018-07-06T07:13:11.233Z,101554.63
2018-07-06T07:14:16.816Z,101557.30
2018-07-06T07:15:22.236Z,101550.22
2018-07-06T07:16:27.837Z,101558.92
2018-07-06T07:17:33.294Z,101553.64
2018-07-06T07:18:38.821Z,101561.95
2018-07-06T07:19:44.352Z,101559.66
2018-07-06T07:20:49.869Z,101558.24
2018-07-06T07:21:55.406Z,101561.88
2018-07-06T07:23:00.902Z,101561.97
2018-07-06T07:24:06.524Z,101562.16
2018-07-06T07:25:12.006Z,101559.52
2018-07-06T07:26:17.489Z,101563.88
2018-07-06T07:27:23.044Z,101564.77
2018-07-06T07:28:28.921Z,101555.30
2018-07-06T07:29:34.400Z,101556.55
2018-07-06T07:30:39.881Z,101558.05
2018-07-06T07:31:45.315Z,101558.39
2018-07-06T07:32:50.828Z,101559.45
2018-07-06T07:33:56.976Z,101563.64
2018-07-06T07:35:02.524Z,101570.31
2018-07-06T07:36:08.077Z,101559.89
2018-07-06T07:37:13.568Z,101562.41
2018-07-06T07:38:19.057Z,101563.30
2018-07-06T07:39:25.169Z,101572.84
2018-07-06T07:40:30.632Z,101568.87
2018-07-06T07:41:35.836Z,101566.70
2018-07-06T07:42:41.357Z,101562.79
2018-07-06T07:43:47.215Z,101567.17
2018-07-06T07:44:52.784Z,101558.14
2018-07-06T07:45:58.666Z,101558.05
2018-07-06T07:47:04.235Z,101556.37
2018-07-06T07:48:09.738Z,101560.50
2018-07-06T07:49:15.331Z,101562.23
2018-07-06T07:50:20.994Z,101559.83
2018-07-06T07:52:12.685Z,101560.75
2018-07-06T07:53:35.050Z,101562.94
2018-07-06T07:54:55.120Z,101562.55
2018-07-06T07:56:00.622Z,101566.90
2018-07-06T07:57:06.189Z,101570.67
2018-07-06T07:58:11.845Z,101568.03
2018-07-06T07:59:17.970Z,101569.73
2018-07-06T08:00:23.508Z,101568.98
2018-07-06T08:01:28.970Z,101576.05
2018-07-06T08:02:34.464Z,101570.78
2018-07-06T08:03:40.250Z,101572.79
2018-07-06T08:04:46.113Z,101569.01
2018-07-06T08:05:51.735Z,101573.80
2018-07-06T08:06:57.725Z,101573.08
2018-07-06T08:08:03.805Z,101574.84
2018-07-06T08:09:09.249Z,101577.61
2018-07-06T08:10:14.700Z,101577.45
2018-07-06T08:11:20.140Z,101580.84
2018-07-06T08:12:25.799Z,101584.02
2018-07-06T08:13:31.336Z,101580.34
2018-07-06T08:14:37.311Z,101578.49
2018-07-06T08:15:42.793Z,101585.20
2018-07-06T08:16:48.595Z,101579.67
2018-07-06T08:17:54.189Z,101584.86
2018-07-06T08:18:59.659Z,101592.48
2018-07-06T08:20:05.111Z,101583.48
2018-07-06T08:21:10.529Z,101593.13
2018-07-06T08:22:15.954Z,101590.05
2018-07-06T08:23:21.438Z,101588.55
2018-07-06T08:24:26.884Z,101592.30
2018-07-06T08:25:32.300Z,101588.30
2018-07-06T08:26:37.685Z,101586.13
2018-07-06T08:27:43.253Z,101588.30
2018-07-06T08:28:48.742Z,101589.53
2018-07-06T08:29:54.159Z,101587.16
2018-07-06T08:30:59.580Z,101591.27
2018-07-06T08:32:05.174Z,101597.47
2018-07-06T08:33:10.792Z,101599.69
2018-07-06T08:34:33.125Z,101595.81
2018-07-06T08:35:55.486Z,101596.33
2018-07-06T08:37:49.080Z,101601.59
2018-07-06T08:38:55.053Z,101606.65
2018-07-06T08:40:00.734Z,101607.01
2018-07-06T08:41:06.268Z,101609.50
2018-07-06T08:42:11.673Z,101611.83
2018-07-06T08:43:17.284Z,101613.92
2018-07-06T08:44:22.737Z,101607.16
2018-07-06T08:45:28.769Z,101605.14
2018-07-06T08:46:34.186Z,101607.81
2018-07-06T08:47:39.752Z,101605.41
2018-07-06T08:48:45.267Z,101610.84
2018-07-06T08:49:50.861Z,101613.56
2018-07-06T08:50:56.635Z,101612.27
2018-07-06T08:52:02.507Z,101614.16
2018-07-06T08:53:08.104Z,101609.45
2018-07-06T08:54:13.548Z,101610.40
2018-07-06T08:55:19.441Z,101604.85
2018-07-06T08:56:24.963Z,101598.84
2018-07-06T08:57:31.636Z,101601.10
2018-07-06T08:58:37.219Z,101602.55
2018-07-06T08:59:42.734Z,101603.13
2018-07-06T09:00:48.150Z,101603.49
2018-07-06T09:01:53.634Z,101599.46
2018-07-06T09:02:59.233Z,101603.88
2018-07-06T09:04:04.869Z,101604.62
2018-07-06T09:05:11.113Z,101598.77
2018-07-06T09:06:16.563Z,101601.76
2018-07-06T09:07:21.992Z,101608.50
2018-07-06T09:08:27.425Z,101605.23
2018-07-06T09:09:32.831Z,101605.72
2018-07-06T09:10:38.574Z,101604.67
2018-07-06T09:11:44.053Z,101608.03
2018-07-06T09:12:49.482Z,101605.05
2018-07-06T09:13:54.929Z,101610.42
2018-07-06T09:15:01.172Z,101608.64
2018-07-06T09:16:06.692Z,101613.66
2018-07-06T09:17:15.196Z,101610.30
2018-07-06T09:18:20.557Z,101615.63
2018-07-06T09:19:26.109Z,101610.70
2018-07-06T09:20:31.416Z,101618.94
2018-07-06T09:21:37.366Z,101615.80
2018-07-06T09:22:42.765Z,101617.54
2018-07-06T09:23:48.183Z,101609.52
2018-07-06T09:24:55.058Z,101619.55
2018-07-06T09:26:00.912Z,101616.05
2018-07-06T09:27:06.109Z,101619.23
2018-07-06T09:28:12.278Z,101609.78
2018-07-06T09:29:17.832Z,101610.09
2018-07-06T09:30:23.501Z,101617.37
2018-07-06T09:31:28.971Z,101613.83
2018-07-06T09:32:34.480Z,101608.95
2018-07-06T09:33:39.948Z,101614.36
2018-07-06T09:34:45.361Z,101612.97
2018-07-06T09:35:50.855Z,101611.35
2018-07-06T09:36:56.364Z,101612.00
2018-07-06T09:38:01.871Z,101611.83
2018-07-06T09:39:07.322Z,101609.94
2018-07-06T09:40:12.865Z,101613.30
2018-07-06T09:41:18.444Z,101609.30
2018-07-06T09:42:24.369Z,101615.45
2018-07-06T09:43:30.237Z,101619.06
2018-07-06T09:44:36.013Z,101618.38
2018-07-06T09:45:41.464Z,101610.73
2018-07-06T09:46:46.928Z,101615.09
2018-07-06T09:47:52.410Z,101620.31
2018-07-06T09:48:57.861Z,101618.57
2018-07-06T09:50:03.520Z,101617.52
2018-07-06T09:51:08.769Z,101617.25
2018-07-06T09:52:14.237Z,101618.09
2018-07-06T09:53:19.700Z,101618.36
2018-07-06T09:54:25.164Z,101615.38
2018-07-06T09:55:30.738Z,101619.14
2018-07-06T09:56:36.196Z,101618.92
2018-07-06T09:57:41.728Z,101612.94
2018-07-06T09:58:47.845Z,101609.48
2018-07-06T09:59:53.228Z,101613.09
2018-07-06T10:01:00.262Z,101624.31
2018-07-06T10:02:05.802Z,101620.84
2018-07-06T10:03:11.212Z,101621.51
2018-07-06T10:04:16.830Z,101620.77
2018-07-06T10:05:22.396Z,101624.31
2018-07-06T10:06:27.833Z,101619.94
2018-07-06T10:07:33.440Z,101619.72
2018-07-06T10:08:38.926Z,101618.61
2018-07-06T10:09:45.182Z,101621.13
2018-07-06T10:10:50.777Z,101628.44
2018-07-06T10:11:56.348Z,101619.42
2018-07-06T10:13:01.788Z,101616.11
2018-07-06T10:14:07.345Z,101618.51
2018-07-06T10:15:12.901Z,101625.19
2018-07-06T10:16:18.487Z,101628.08
2018-07-06T10:17:23.581Z,101617.87
2018-07-06T10:18:29.021Z,101620.84
2018-07-06T10:19:34.582Z,101616.09
2018-07-06T10:20:40.215Z,101615.12
2018-07-06T10:21:45.821Z,101615.77
2018-07-06T10:22:51.471Z,101624.77
2018-07-06T10:23:56.963Z,101619.42
2018-07-06T10:25:02.368Z,101624.27
2018-07-06T10:26:07.961Z,101627.92
2018-07-06T10:27:13.494Z,101611.09
2018-07-06T10:30:42.873Z,101627.44
2018-07-06T10:32:25.230Z,101617.63
2018-07-06T10:33:30.743Z,101624.20
2018-07-06T10:34:36.616Z,101629.59
2018-07-06T10:35:42.293Z,101628.39
2018-07-06T10:36:48.098Z,101627.78
2018-07-06T10:37:53.640Z,101623.05
2018-07-06T10:38:58.871Z,101620.43
2018-07-06T10:40:04.593Z,101620.59
2018-07-06T10:41:09.775Z,101612.94
2018-07-06T10:42:15.304Z,101619.29
2018-07-06T10:43:20.717Z,101614.72
2018-07-06T10:44:26.138Z,101626.83
2018-07-06T10:45:31.602Z,101617.89
2018-07-06T10:46:37.296Z,101624.59
2018-07-06T10:47:42.443Z,101623.34
2018-07-06T10:48:47.809Z,101627.06
2018-07-06T10:49:53.274Z,101623.48
2018-07-06T10:50:58.929Z,101621.44
2018-07-06T10:52:04.645Z,101629.36
2018-07-06T10:53:10.276Z,101631.40
2018-07-06T10:54:15.761Z,101628.78
2018-07-06T10:55:21.357Z,101629.51
2018-07-06T10:56:26.949Z,101632.56
2018-07-06T10:57:32.405Z,101633.29
2018-07-06T10:58:37.956Z,101636.54
2018-07-06T10:59:43.430Z,101637.17
2018-07-06T11:00:48.965Z,101633.67
2018-07-06T11:01:54.814Z,101637.50
2018-07-06T11:03:00.302Z,101639.87
2018-07-06T11:04:05.813Z,101638.00
2018-07-06T11:05:11.471Z,101637.48
2018-07-06T11:06:17.123Z,101638.98
2018-07-06T11:07:22.352Z,101642.72
2018-07-06T11:08:27.713Z,101640.63
2018-07-06T11:09:33.249Z,101643.02
2018-07-06T11:10:39.030Z,101640.41
2018-07-06T11:11:44.721Z,101650.64
2018-07-06T11:12:50.281Z,101641.02
2018-07-06T11:13:55.802Z,101646.00
2018-07-06T11:15:01.314Z,101637.37
2018-07-06T11:16:07.573Z,101636.06
2018-07-06T11:17:13.213Z,101639.66
2018-07-06T11:18:18.761Z,101642.84
2018-07-06T11:19:24.315Z,101644.84
2018-07-06T11:20:29.780Z,101643.83
2018-07-06T11:21:35.283Z,101644.42
2018-07-06T11:22:41.329Z,101646.95
2018-07-06T11:23:46.853Z,101637.10
2018-07-06T11:24:52.301Z,101642.42
2018-07-06T11:25:57.814Z,101646.64
2018-07-06T11:27:03.302Z,101647.98
2018-07-06T11:28:08.912Z,101645.28
2018-07-06T11:29:14.557Z,101647.24
2018-07-06T11:30:20.038Z,101638.59
2018-07-06T11:31:25.478Z,101643.02
2018-07-06T11:32:31.024Z,101647.33
2018-07-06T11:33:36.650Z,101639.37
2018-07-06T11:34:42.170Z,101643.08
2018-07-06T11:35:47.880Z,101643.92
2018-07-06T11:36:53.820Z,101649.06
2018-07-06T11:37:59.442Z,101639.74
2018-07-06T11:39:06.301Z,101641.20
2018-07-06T11:40:11.750Z,101639.97
2018-07-06T11:41:17.284Z,101647.98
2018-07-06T11:42:23.063Z,101643.44
2018-07-06T11:43:28.594Z,101636.87
2018-07-06T11:44:34.228Z,101640.23
2018-07-06T11:45:40.118Z,101641.43
2018-07-06T11:46:45.663Z,101645.05
2018-07-06T11:47:51.845Z,101637.08
2018-07-06T11:48:57.509Z,101645.16
2018-07-06T11:50:03.109Z,101638.01
2018-07-06T11:51:08.847Z,101637.95
2018-07-06T11:52:14.374Z,101631.80
2018-07-06T11:53:20.065Z,101643.92
2018-07-06T11:54:25.801Z,101636.18
2018-07-06T11:55:32.560Z,101642.85
2018-07-06T11:56:41.110Z,101637.49
2018-07-06T11:57:47.681Z,101645.95
2018-07-06T11:58:53.618Z,101646.95
2018-07-06T11:59:59.193Z,101639.37
2018-07-06T12:01:05.281Z,101641.64
2018-07-06T12:02:11.125Z,101637.30
2018-07-06T12:03:18.957Z,101636.42
2018-07-06T12:04:24.734Z,101645.17
2018-07-06T12:05:30.283Z,101640.23
2018-07-06T12:06:35.790Z,101638.00
2018-07-06T12:07:41.954Z,101643.84
2018-07-06T12:08:47.561Z,101638.31
2018-07-06T12:09:53.057Z,101638.16
2018-07-06T12:10:58.799Z,101638.94
2018-07-06T12:12:04.557Z,101631.91
2018-07-06T12:13:10.090Z,101634.84
2018-07-06T12:14:15.771Z,101634.68
2018-07-06T12:15:21.400Z,101631.88
2018-07-06T12:16:27.316Z,101637.59
2018-07-06T12:17:32.822Z,101636.98
2018-07-06T12:18:38.650Z,101631.97
2018-07-06T12:19:44.341Z,101636.05
2018-07-06T12:20:50.045Z,101648.57
2018-07-06T12:21:55.513Z,101647.19
2018-07-06T12:23:01.101Z,101644.45
2018-07-06T12:24:06.795Z,101641.11
2018-07-06T12:25:12.364Z,101641.44
2018-07-06T12:26:17.921Z,101647.80
2018-07-06T12:27:23.424Z,101640.03
2018-07-06T12:28:28.974Z,101648.31
2018-07-06T12:29:34.703Z,101649.23
2018-07-06T12:30:40.373Z,101638.69
2018-07-06T12:31:45.906Z,101644.27
2018-07-06T12:32:51.445Z,101643.01
2018-07-06T12:33:56.904Z,101643.53
2018-07-06T12:35:02.777Z,101636.98
2018-07-06T12:36:08.419Z,101637.11
2018-07-06T12:37:14.034Z,101637.61
2018-07-06T12:38:19.494Z,101644.52
2018-07-06T12:39:25.022Z,101644.05
2018-07-06T12:40:30.618Z,101642.64
2018-07-06T12:41:36.091Z,101653.16
2018-07-06T12:42:41.497Z,101637.94
2018-07-06T12:43:46.941Z,101636.41
2018-07-06T12:44:52.361Z,101637.37
2018-07-06T12:45:58.197Z,101638.70
2018-07-06T12:47:03.723Z,101638.92
2018-07-06T12:48:09.396Z,101640.24
2018-07-06T12:49:15.238Z,101643.88
2018-07-06T12:50:20.717Z,101639.75
2018-07-06T12:51:26.263Z,101645.72
2018-07-06T12:52:31.830Z,101644.41
2018-07-06T12:53:37.374Z,101646.03
2018-07-06T12:54:43.077Z,101639.11
2018-07-06T12:55:48.626Z,101640.77
2018-07-06T12:56:54.759Z,101641.14
2018-07-06T12:58:00.269Z,101642.09
2018-07-06T12:59:05.809Z,101640.66
2018-07-06T13:00:11.319Z,101640.42
2018-07-06T13:01:16.910Z,101636.13
2018-07-06T13:02:22.999Z,101638.86
2018-07-06T13:03:28.474Z,101634.93
2018-07-06T13:04:34.235Z,101640.09
2018-07-06T13:05:39.840Z,101641.74
2018-07-06T13:06:45.142Z,101636.95
2018-07-06T13:07:50.677Z,101637.56
2018-07-06T13:08:56.285Z,101655.28
2018-07-06T13:10:01.820Z,101641.03
2018-07-06T13:11:07.461Z,101640.02
2018-07-06T13:12:12.932Z,101640.70
2018-07-06T13:13:18.828Z,101631.52
2018-07-06T13:14:24.329Z,101647.19
2018-07-06T13:15:30.030Z,101645.20
2018-07-06T13:16:35.482Z,101648.44
2018-07-06T13:17:46.193Z,101645.43
2018-07-06T13:18:51.737Z,101653.10
2018-07-06T13:19:57.278Z,101639.45
2018-07-06T13:21:05.750Z,101648.28
2018-07-06T13:22:11.183Z,101645.66
2018-07-06T13:23:16.637Z,101648.66
2018-07-06T13:24:22.511Z,101645.88
2018-07-06T13:25:28.013Z,101639.52
2018-07-06T13:26:33.521Z,101638.03
2018-07-06T13:27:39.154Z,101640.75
2018-07-06T13:28:51.201Z,101647.94
2018-07-06T13:29:56.814Z,101644.25
2018-07-06T13:31:02.405Z,101651.44
2018-07-06T13:32:08.027Z,101645.30
2018-07-06T13:33:13.572Z,101643.44
2018-07-06T13:34:18.984Z,101641.47
2018-07-06T13:35:24.467Z,101645.28
2018-07-06T13:36:29.957Z,101640.50
2018-07-06T13:37:35.421Z,101650.33
2018-07-06T13:38:41.329Z,101645.68
2018-07-06T13:39:46.746Z,101642.83
2018-07-06T13:40:52.226Z,101653.48
2018-07-06T13:41:57.642Z,101651.13
2018-07-06T13:43:03.077Z,101647.42
2018-07-06T13:44:08.697Z,101648.66
2018-07-06T13:45:14.300Z,101650.70
2018-07-06T13:46:19.788Z,101654.42
2018-07-06T13:47:25.604Z,101650.24
2018-07-06T13:48:31.562Z,101652.88